createdAt,value
2019-03-09T00:06:23.687Z,100110.17
2019-03-09T00:10:29.251Z,100101.12
2019-03-09T00:14:34.586Z,100126.13
2019-03-09T00:18:40.108Z,100084.35
2019-03-09T00:22:47.598Z,100070.30
2019-03-09T00:26:59.701Z,100070.30
2019-03-09T00:31:42.884Z,100084.78
2019-03-09T00:35:48.017Z,100090.77
2019-03-09T00:39:53.104Z,100074.34
2019-03-09T00:43:58.553Z,100069.62
2019-03-09T00:48:03.863Z,100065.17
2019-03-09T00:56:33.310Z,100051.50
2019-03-09T01:01:17.979Z,100044.09
2019-03-09T01:05:23.268Z,100027.05
2019-03-09T01:09:47.431Z,100058.02
2019-03-09T01:13:52.664Z,100018.13
2019-03-09T01:17:57.830Z,100003.62
2019-03-09T01:22:02.993Z,100009.33
2019-03-09T01:26:08.187Z,100016.97
2019-03-09T01:30:15.643Z,100018.28
2019-03-09T01:34:20.831Z,99998.55
2019-03-09T01:38:26.208Z,99991.61
2019-03-09T01:42:31.431Z,99989.71
2019-03-09T01:46:42.737Z,99986.91
2019-03-09T01:55:17.432Z,99972.95
2019-03-09T01:59:22.539Z,99994.78
2019-03-09T02:03:27.707Z,99965.46
2019-03-09T02:07:32.844Z,99946.92
2019-03-09T02:11:37.975Z,99949.37
2019-03-09T02:15:43.222Z,99957.33
2019-03-09T02:20:07.672Z,99951.90
2019-03-09T02:24:27.901Z,99961.31
2019-03-09T02:29:12.442Z,99953.00
2019-03-09T02:33:17.534Z,99944.23
2019-03-09T02:37:22.644Z,99958.20
2019-03-09T02:41:27.752Z,99934.89
2019-03-09T02:45:33.298Z,99934.80
2019-03-09T02:49:38.454Z,99955.78
2019-03-09T02:53:43.642Z,99938.05
2019-03-09T02:58:08.012Z,99947.63
2019-03-09T03:02:39.733Z,99924.47
2019-03-09T03:06:44.976Z,99937.83
2019-03-09T03:10:50.113Z,99955.73
2019-03-09T03:14:55.304Z,99947.63
2019-03-09T03:19:00.404Z,99984.66
2019-03-09T03:23:05.553Z,99979.87
2019-03-09T03:31:41.291Z,99984.56
2019-03-09T03:35:46.383Z,99949.97
2019-03-09T03:39:51.602Z,99950.55
2019-03-09T03:43:56.705Z,99926.92
2019-03-09T03:48:01.822Z,99976.84
2019-03-09T03:52:07.138Z,99982.09
2019-03-09T03:56:12.345Z,99969.54
2019-03-09T04:00:17.712Z,99981.45
2019-03-09T04:04:22.877Z,99996.28
2019-03-09T04:09:07.415Z,99979.34
2019-03-09T04:13:14.160Z,99996.09
2019-03-09T04:17:19.499Z,100001.77
2019-03-09T04:21:27.705Z,100003.08
2019-03-09T04:25:32.896Z,100048.22
2019-03-09T04:29:39.041Z,100032.03
2019-03-09T04:33:44.243Z,100032.31
2019-03-09T04:37:49.381Z,100050.34
2019-03-09T04:41:54.706Z,100052.35
2019-03-09T04:45:59.948Z,100042.06
2019-03-09T05:04:26.898Z,100087.87
2019-03-09T05:08:53.758Z,100087.13
2019-03-09T05:18:02.829Z,100074.92
2019-03-09T05:22:07.925Z,100109.19
2019-03-09T05:26:13.132Z,100131.73
2019-03-09T05:31:14.594Z,100126.79
2019-03-09T05:35:19.774Z,100137.08
2019-03-09T05:39:41.194Z,100135.86
2019-03-09T05:53:16.548Z,100113.93
2019-03-09T06:02:15.990Z,100094.64
2019-03-09T06:06:21.316Z,100104.69
2019-03-09T06:10:26.494Z,100116.38
2019-03-09T06:14:31.659Z,100112.42
2019-03-09T06:18:37.109Z,100125.20
2019-03-09T06:22:42.636Z,100143.80
2019-03-09T06:26:48.590Z,100182.02
2019-03-09T06:30:53.811Z,100175.42
2019-03-09T06:34:59.139Z,100192.16
2019-03-09T06:39:26.333Z,100192.16
2019-03-09T06:43:31.620Z,100221.03
2019-03-09T06:47:36.839Z,100223.39
2019-03-09T06:51:42.274Z,100241.98
2019-03-09T06:55:47.398Z,100255.52
2019-03-09T06:59:52.608Z,100245.47
2019-03-09T07:03:59.582Z,100237.10
2019-03-09T07:08:04.714Z,100252.61
2019-03-09T07:12:11.364Z,100267.55
2019-03-09T07:16:28.106Z,100258.91
2019-03-09T07:20:33.276Z,100258.91
2019-03-09T07:24:38.442Z,100266.19
2019-03-09T07:28:43.591Z,100283.20
2019-03-09T07:35:22.860Z,100284.47
2019-03-09T07:39:27.984Z,100274.75
2019-03-09T07:43:33.156Z,100287.28
2019-03-09T07:47:38.369Z,100293.20
2019-03-09T07:51:43.511Z,100293.40
2019-03-09T07:55:48.737Z,100293.50
2019-03-09T07:59:54.360Z,100328.04
2019-03-09T08:03:59.742Z,100309.98
2019-03-09T08:08:04.933Z,100318.39
2019-03-09T08:12:10.134Z,100310.95
2019-03-09T08:16:15.322Z,100307.94
2019-03-09T08:20:20.742Z,100304.48
2019-03-09T08:24:44.838Z,100290.37
2019-03-09T08:33:06.730Z,100308.52
2019-03-09T08:37:24.238Z,100330.34
2019-03-09T08:41:29.371Z,100329.31
2019-03-09T08:45:36.268Z,100336.56
2019-03-09T08:49:43.374Z,100321.50
2019-03-09T08:53:48.559Z,100334.20
2019-03-09T08:57:54.044Z,100328.30
2019-03-09T09:01:59.335Z,100311.73
2019-03-09T09:06:04.481Z,100301.66
2019-03-09T09:10:10.068Z,100309.92
2019-03-09T09:14:15.368Z,100312.19
2019-03-09T09:18:20.625Z,100296.57
2019-03-09T09:22:38.160Z,100294.77
2019-03-09T09:26:41.267Z,100306.27
2019-03-09T09:30:48.346Z,100340.73
2019-03-09T09:34:58.267Z,100336.58
2019-03-09T09:43:19.170Z,100322.45
2019-03-09T09:47:24.560Z,100326.86
2019-03-09T09:51:31.672Z,100288.75
2019-03-09T09:55:36.801Z,100291.66
2019-03-09T09:59:41.976Z,100315.28
2019-03-09T10:03:47.132Z,100324.39
2019-03-09T10:07:52.413Z,100308.67
2019-03-09T10:11:57.558Z,100289.56
2019-03-09T10:16:02.714Z,100300.86
2019-03-09T10:20:08.223Z,100305.63
2019-03-09T10:24:13.401Z,100312.61
2019-03-09T10:28:18.656Z,100278.61
2019-03-09T10:32:23.857Z,100276.52
2019-03-09T10:36:29.072Z,100269.83
2019-03-09T10:40:53.110Z,100257.68
2019-03-09T10:44:58.437Z,100245.34
2019-03-09T10:49:15.543Z,100252.83
2019-03-09T10:53:20.645Z,100251.67
2019-03-09T10:57:25.838Z,100268.61
2019-03-09T11:01:51.791Z,100281.44
2019-03-09T11:10:14.031Z,100258.96
2019-03-09T11:14:33.403Z,100241.69
2019-03-09T11:18:31.502Z,100259.37
2019-03-09T11:26:56.089Z,100229.36
2019-03-09T11:31:01.339Z,100231.05
2019-03-09T11:35:07.309Z,100228.64
2019-03-09T11:39:12.582Z,100190.49
2019-03-09T11:43:17.763Z,100169.97
2019-03-09T11:51:57.707Z,100146.52
2019-03-09T11:56:02.837Z,100189.44
2019-03-09T12:04:47.100Z,100143.66
2019-03-09T12:38:57.519Z,100123.88
2019-03-09T12:43:02.956Z,100106.06
2019-03-09T12:47:08.163Z,100105.23
2019-03-09T12:51:13.654Z,100073.66
2019-03-09T12:55:19.003Z,100088.47
2019-03-09T12:59:24.739Z,100096.10
2019-03-09T13:03:30.143Z,100104.39
2019-03-09T13:43:48.474Z,100038.80
2019-03-09T14:46:18.155Z,99979.89
2019-03-09T14:50:23.272Z,99980.88
2019-03-09T14:54:28.455Z,99990.08
2019-03-09T14:58:33.737Z,99968.76
2019-03-09T15:02:38.989Z,99977.86
2019-03-09T15:06:44.626Z,99954.55
2019-03-09T15:10:49.750Z,99941.89
2019-03-09T15:14:54.907Z,99992.98
2019-03-09T15:19:00.066Z,99969.00
2019-03-09T15:23:05.237Z,99970.33
2019-03-09T15:27:10.625Z,99967.09
2019-03-09T15:31:15.949Z,99945.49
2019-03-09T15:35:22.141Z,99987.33
2019-03-09T15:39:27.335Z,100015.20
2019-03-09T15:43:32.534Z,99945.76
2019-03-09T15:56:13.732Z,100055.52
2019-03-09T16:00:38.103Z,100097.14
2019-03-09T16:04:56.052Z,100074.81
2019-03-09T16:08:56.171Z,100085.41
2019-03-09T16:13:01.308Z,100101.41
2019-03-09T16:17:10.949Z,100106.58
2019-03-09T16:21:16.142Z,100116.85
2019-03-09T16:25:22.664Z,100130.10
2019-03-09T16:29:27.878Z,100159.80
2019-03-09T16:33:34.489Z,100158.87
2019-03-09T16:37:57.467Z,100175.47
2019-03-09T16:42:02.660Z,100153.52
2019-03-09T16:46:10.416Z,100197.61
2019-03-09T16:50:17.510Z,100221.55
2019-03-09T16:54:22.993Z,100228.84
2019-03-09T16:58:31.022Z,100237.45
2019-03-09T17:02:36.276Z,100278.95
2019-03-09T17:06:41.765Z,100262.33
2019-03-09T17:10:46.949Z,100280.75
2019-03-09T17:14:52.165Z,100238.22
2019-03-09T17:18:57.382Z,100312.20
2019-03-09T17:23:17.288Z,100318.91
2019-03-09T17:27:30.053Z,100309.92
2019-03-09T17:31:35.262Z,100343.03
2019-03-09T17:35:43.229Z,100335.43
2019-03-09T17:39:49.021Z,100345.72
2019-03-09T17:43:54.170Z,100336.55
2019-03-09T17:47:59.358Z,100364.42
2019-03-09T17:52:04.561Z,100386.09
2019-03-09T17:56:09.646Z,100381.59
2019-03-09T18:00:17.869Z,100402.87
2019-03-09T18:04:23.216Z,100417.63
2019-03-09T18:08:28.602Z,100431.95
2019-03-09T18:12:36.442Z,100443.52
2019-03-09T18:16:52.454Z,100451.52
2019-03-09T18:20:50.264Z,100456.14
2019-03-09T18:24:55.413Z,100471.20
2019-03-09T18:29:00.574Z,100482.31
2019-03-09T18:33:07.350Z,100488.67
2019-03-09T18:37:22.615Z,100502.59
2019-03-09T18:41:27.744Z,100504.63
2019-03-09T18:45:32.932Z,100530.64
2019-03-09T18:49:38.050Z,100526.95
2019-03-09T18:53:43.343Z,100523.99
2019-03-09T18:57:48.536Z,100536.78
2019-03-09T19:01:55.269Z,100531.91
2019-03-09T19:06:03.027Z,100551.38
2019-03-09T19:10:09.881Z,100547.73
2019-03-09T19:14:16.184Z,100571.13
2019-03-09T19:18:21.436Z,100571.80
2019-03-09T19:26:46.093Z,100573.63
2019-03-09T19:31:39.035Z,100581.61
2019-03-09T19:35:44.215Z,100629.84
2019-03-09T19:40:08.435Z,100601.79
2019-03-09T19:44:13.648Z,100605.57
2019-03-09T19:48:18.784Z,100593.44
2019-03-09T19:52:24.028Z,100586.69
2019-03-09T19:56:29.534Z,100596.56
2019-03-09T20:00:34.690Z,100586.42
2019-03-09T20:04:39.890Z,100609.00
2019-03-09T20:08:45.108Z,100598.56
2019-03-09T20:13:11.906Z,100594.19
2019-03-09T20:17:32.538Z,100585.28
2019-03-09T20:21:37.668Z,100593.47
2019-03-09T20:25:42.865Z,100605.86
2019-03-09T20:29:48.382Z,100604.70
2019-03-09T20:33:54.496Z,100596.95
2019-03-09T20:37:59.671Z,100607.00
2019-03-09T20:42:04.903Z,100605.30
2019-03-09T20:46:10.070Z,100604.67
2019-03-09T20:50:15.758Z,100612.27
2019-03-09T20:54:22.419Z,100614.59
2019-03-09T20:58:27.515Z,100609.09
2019-03-09T21:02:32.670Z,100620.84
2019-03-09T21:06:37.881Z,100622.67
2019-03-09T21:10:43.097Z,100613.63
2019-03-09T21:14:48.296Z,100617.88
2019-03-09T21:23:10.203Z,100603.34
2019-03-09T21:27:15.399Z,100607.94
2019-03-09T21:31:20.841Z,100606.84
2019-03-09T21:35:27.620Z,100616.51
2019-03-09T21:39:32.915Z,100627.22
2019-03-09T21:43:39.416Z,100600.14
2019-03-09T21:47:56.668Z,100613.00
2019-03-09T21:52:01.798Z,100618.59
2019-03-09T21:56:08.624Z,100602.42
2019-03-09T22:00:32.983Z,100609.80
2019-03-09T22:04:57.180Z,100609.72
2019-03-09T22:09:02.323Z,100605.05
2019-03-09T22:17:39.538Z,100613.67
2019-03-09T22:21:44.731Z,100615.83
2019-03-09T22:25:49.937Z,100617.22
2019-03-09T22:29:55.053Z,100602.67
2019-03-09T22:34:00.226Z,100620.93
2019-03-09T22:38:24.421Z,100608.75
2019-03-09T22:42:29.642Z,100608.75
2019-03-09T22:46:36.332Z,100623.69
2019-03-09T22:50:42.287Z,100603.78
2019-03-09T22:59:23.961Z,100592.97
2019-03-09T23:03:29.147Z,100592.58
2019-03-09T23:07:34.454Z,100595.55
2019-03-09T23:11:39.609Z,100589.52
2019-03-09T23:15:44.748Z,100590.45
2019-03-09T23:19:49.869Z,100577.81
2019-03-09T23:23:55.005Z,100561.44
2019-03-09T23:28:00.230Z,100562.62
2019-03-09T23:32:05.688Z,100556.31
2019-03-09T23:40:27.720Z,100552.34
2019-03-09T23:44:32.820Z,100554.40
2019-03-09T23:48:37.930Z,100558.34
2019-03-09T23:53:27.860Z,100552.37
